Terminal Aerodrome Forecast
Issued by NWS Kansas City/Pleasant Hill, MO

Home | Current Version | Previous Version | Text Only | Print | Product List | Glossary On
Versions: 1 2 3 4 5 6 7 8 9 10 11 12 13 14
000
FTUS43 KEAX 301121
TAFMCI
TAF
KMCI 301121Z 3012/3112 07005KT 6SM BR BKN009
     FM301500 10006KT P6SM BKN015
     FM301700 09006KT P6SM BKN025
     FM301900 11007KT P6SM SCT035=

USA.gov is the U.S. government's official web portal to all federal, state and local government web resources and services.